Cuba, Ohio
Current Conditions -  °F | °C
As of 11:54 AM on Friday 28 Nov 2014 (Local Time) from KILN Reporting Station
Overcast Overcast  
Wind Chill: 20°   Ceiling: 7500
Heat Index: 29°   Visibility: 10mi
Dew Point: 19°   Wind: 9mph
Humidity: 67%   Direction: 190°S
Pressure: 30.31"   Gusts: NA
Location:  39.36°N, 83.86°W
Report Text: KILN 281654Z AUTO 19008KT 10SM SCT023 BKN075 OVC090 M02/M07 A3031 RMK AO2 SLP294 T10171072
Loading
Personal Weather Stations






























Interactive Weather Map New forecast layout! Learn more

10-Day Weather Forecast

Advertisements
Track Severe Weather on mobile